createdAt,value
2023-02-28T00:01:43.324Z,54.08
2023-02-28T00:04:12.256Z,54.28
2023-02-28T00:06:41.081Z,54.31
2023-02-28T00:09:09.509Z,54.08
2023-02-28T00:11:39.213Z,54.12
2023-02-28T00:14:10.450Z,54.14
2023-02-28T00:16:39.270Z,54.13
2023-02-28T00:19:14.755Z,54.29
2023-02-28T00:21:44.416Z,54.57
2023-02-28T00:24:15.237Z,54.48
2023-02-28T00:26:43.925Z,54.32
2023-02-28T00:29:12.730Z,54.37
2023-02-28T00:31:41.591Z,54.29
2023-02-28T00:34:10.302Z,54.46
2023-02-28T00:36:39.469Z,54.52
2023-02-28T00:39:07.901Z,54.66
2023-02-28T00:41:36.596Z,54.72
2023-02-28T00:44:05.649Z,54.55
2023-02-28T00:46:34.841Z,54.62
2023-02-28T00:49:03.258Z,54.63
2023-02-28T00:51:32.287Z,54.71
2023-02-28T00:54:01.915Z,54.69
2023-02-28T00:56:31.040Z,54.65
2023-02-28T00:58:59.566Z,55.08
2023-02-28T01:01:28.569Z,55.01
2023-02-28T01:03:57.631Z,55.09
2023-02-28T01:06:28.861Z,54.85
2023-02-28T01:08:57.561Z,54.43
2023-02-28T01:11:27.071Z,54.21
2023-02-28T01:13:55.893Z,54.11
2023-02-28T01:16:24.856Z,54.32
2023-02-28T01:18:54.995Z,54.51
2023-02-28T01:21:23.566Z,55.03
2023-02-28T01:23:52.678Z,54.66
2023-02-28T01:26:23.249Z,54.54
2023-02-28T01:28:53.400Z,54.60
2023-02-28T01:31:22.687Z,54.55
2023-02-28T01:33:52.089Z,54.40
2023-02-28T01:36:24.499Z,54.48
2023-02-28T01:38:55.481Z,54.74
2023-02-28T01:41:32.650Z,54.69
2023-02-28T01:44:20.404Z,54.94
2023-02-28T01:46:49.358Z,54.96
2023-02-28T01:49:19.869Z,54.88
2023-02-28T01:51:56.146Z,54.83
2023-02-28T01:54:32.407Z,54.84
2023-02-28T01:57:05.394Z,54.83
2023-02-28T01:59:51.277Z,54.74
2023-02-28T02:02:23.625Z,54.51
2023-02-28T02:05:07.854Z,54.60
2023-02-28T02:07:42.620Z,54.49
2023-02-28T02:10:19.969Z,54.49
2023-02-28T02:12:54.564Z,54.36
2023-02-28T02:15:32.061Z,54.75
2023-02-28T02:18:12.619Z,54.76
2023-02-28T02:21:14.021Z,54.82
2023-02-28T02:23:48.256Z,55.10
2023-02-28T02:26:17.159Z,55.31
2023-02-28T02:28:51.567Z,55.36
2023-02-28T02:31:26.673Z,55.45
2023-02-28T02:34:27.189Z,56.08
2023-02-28T02:37:04.984Z,56.22
2023-02-28T02:39:46.621Z,55.90
2023-02-28T02:42:25.941Z,55.95
2023-02-28T02:45:03.552Z,55.66
2023-02-28T02:47:34.162Z,55.57
2023-02-28T02:50:06.554Z,55.49
2023-02-28T02:52:50.756Z,55.41
2023-02-28T02:55:21.817Z,55.75
2023-02-28T02:58:04.974Z,56.04
2023-02-28T03:00:42.621Z,56.18
2023-02-28T03:03:14.033Z,56.05
2023-02-28T03:05:52.545Z,55.74
2023-02-28T03:08:21.330Z,55.73
2023-02-28T03:11:05.411Z,55.39
2023-02-28T03:14:05.391Z,55.65
2023-02-28T03:16:37.862Z,55.79
2023-02-28T03:19:54.512Z,55.50
2023-02-28T03:22:56.395Z,55.61
2023-02-28T03:25:39.645Z,55.61
2023-02-28T03:28:24.810Z,55.46
2023-02-28T03:31:00.455Z,55.57
2023-02-28T03:33:40.033Z,55.83
2023-02-28T03:36:19.196Z,55.58
2023-02-28T03:38:55.743Z,55.42
2023-02-28T03:41:30.193Z,55.24
2023-02-28T03:44:06.958Z,54.92
2023-02-28T03:46:42.213Z,54.98
2023-02-28T03:49:26.276Z,55.08
2023-02-28T03:51:57.679Z,55.49
2023-02-28T03:54:37.483Z,55.93
2023-02-28T03:57:24.327Z,55.67
2023-02-28T04:00:00.835Z,55.94
2023-02-28T04:02:29.185Z,56.02
2023-02-28T04:04:58.737Z,56.08
2023-02-28T04:07:30.783Z,56.21
2023-02-28T04:10:01.395Z,56.48
2023-02-28T04:12:29.768Z,56.34
2023-02-28T04:14:58.566Z,56.63
2023-02-28T04:17:27.395Z,56.54
2023-02-28T04:19:58.646Z,56.50
2023-02-28T04:22:29.865Z,56.61
2023-02-28T04:24:58.201Z,56.51
2023-02-28T04:27:26.741Z,56.28
2023-02-28T04:29:56.752Z,55.99
2023-02-28T04:32:26.057Z,55.89
2023-02-28T04:34:55.016Z,55.87
2023-02-28T04:37:29.266Z,56.00
2023-02-28T04:39:57.722Z,56.30
2023-02-28T04:42:25.965Z,56.08
2023-02-28T04:44:54.347Z,55.95
2023-02-28T04:47:22.937Z,55.92
2023-02-28T04:49:51.324Z,55.86
2023-02-28T04:52:20.042Z,55.81
2023-02-28T04:54:49.209Z,55.96
2023-02-28T04:57:17.677Z,55.83
2023-02-28T04:59:45.981Z,55.77
2023-02-28T05:02:15.263Z,55.92
2023-02-28T05:04:44.001Z,55.67
2023-02-28T05:07:12.589Z,55.49
2023-02-28T13:24:34.704Z,6.59
2023-02-28T13:27:04.733Z,6.57
2023-02-28T13:29:37.709Z,6.43
2023-02-28T13:32:12.440Z,6.34
2023-02-28T13:35:09.268Z,6.18
2023-02-28T13:37:46.324Z,6.60
2023-02-28T13:40:14.574Z,6.81
2023-02-28T13:42:46.466Z,7.24
2023-02-28T13:45:15.329Z,7.49
2023-02-28T13:48:01.502Z,7.48
2023-02-28T13:50:36.674Z,8.59
2023-02-28T13:53:19.566Z,8.38
2023-02-28T13:55:54.613Z,7.99
2023-02-28T13:58:37.914Z,9.32
2023-02-28T14:01:34.091Z,9.38
2023-02-28T14:04:33.694Z,9.53
2023-02-28T14:07:06.490Z,8.73
2023-02-28T14:10:01.010Z,9.16
2023-02-28T14:12:51.461Z,9.14
2023-02-28T14:15:41.536Z,9.25
2023-02-28T14:18:27.079Z,10.05
2023-02-28T14:21:26.605Z,11.05
2023-02-28T14:24:24.191Z,11.65
2023-02-28T14:26:58.937Z,11.70
2023-02-28T14:29:52.065Z,11.83
2023-02-28T14:32:29.969Z,12.50
2023-02-28T14:35:19.019Z,12.11
2023-02-28T14:37:49.795Z,11.86
2023-02-28T14:40:26.894Z,11.77
2023-02-28T14:43:01.053Z,11.60
2023-02-28T14:45:33.046Z,10.61
2023-02-28T14:48:05.271Z,10.75
2023-02-28T14:50:38.871Z,10.69
2023-02-28T14:53:16.958Z,10.38
2023-02-28T14:55:50.472Z,10.65
2023-02-28T14:58:28.876Z,10.19
2023-02-28T15:01:02.693Z,9.62
2023-02-28T15:03:33.421Z,9.49
2023-02-28T15:06:05.354Z,9.56
2023-02-28T15:08:37.398Z,9.38
2023-02-28T15:11:08.298Z,9.45
2023-02-28T15:13:47.508Z,9.58
2023-02-28T15:16:26.393Z,9.58
2023-02-28T15:19:00.679Z,9.96
2023-02-28T15:21:34.761Z,9.84
2023-02-28T15:24:54.634Z,9.91
2023-02-28T15:27:33.487Z,12.28
2023-02-28T15:30:07.616Z,14.13
2023-02-28T15:32:40.255Z,15.54
2023-02-28T15:35:29.887Z,16.98
2023-02-28T15:38:16.888Z,18.07
2023-02-28T15:40:54.819Z,18.95
2023-02-28T15:43:35.174Z,19.89
2023-02-28T15:46:07.663Z,20.61
2023-02-28T15:48:39.306Z,21.36
2023-02-28T15:51:16.595Z,22.30
2023-02-28T15:54:01.287Z,22.95
2023-02-28T15:56:30.511Z,23.77
2023-02-28T15:59:02.270Z,24.41
2023-02-28T16:01:43.562Z,24.85
2023-02-28T16:04:21.510Z,25.54
2023-02-28T16:06:55.862Z,25.92
2023-02-28T16:09:25.629Z,26.40
2023-02-28T16:11:58.117Z,26.81
2023-02-28T16:14:28.894Z,27.15
2023-02-28T16:17:06.594Z,27.33
2023-02-28T16:19:34.986Z,28.08
2023-02-28T16:22:03.703Z,28.66
2023-02-28T16:24:32.046Z,28.76
2023-02-28T16:27:01.778Z,29.08
2023-02-28T16:29:35.822Z,29.27
2023-02-28T16:32:07.219Z,29.37
2023-02-28T16:34:35.821Z,29.51
2023-02-28T16:37:06.652Z,29.70
2023-02-28T16:39:35.307Z,30.20
2023-02-28T16:42:04.125Z,30.20
2023-02-28T16:44:37.025Z,30.68
2023-02-28T16:47:05.917Z,31.07
2023-02-28T16:49:34.539Z,30.95
2023-02-28T16:52:03.158Z,31.43
2023-02-28T16:54:31.638Z,31.70
2023-02-28T16:57:01.184Z,31.80
2023-02-28T16:59:31.043Z,32.18
2023-02-28T17:02:00.088Z,32.42
2023-02-28T17:04:30.394Z,32.75
2023-02-28T17:06:59.672Z,32.81
2023-02-28T17:09:36.720Z,32.81
2023-02-28T17:12:10.634Z,32.68
2023-02-28T17:14:39.252Z,32.93
2023-02-28T17:17:08.773Z,33.37
2023-02-28T17:19:40.084Z,33.51
2023-02-28T17:22:09.637Z,33.31
2023-02-28T17:24:38.455Z,34.01
2023-02-28T17:27:08.910Z,34.40
2023-02-28T17:29:41.675Z,34.69
2023-02-28T17:32:17.916Z,35.10
2023-02-28T17:34:47.290Z,35.65
2023-02-28T17:37:18.335Z,35.86
2023-02-28T17:39:46.978Z,35.88
2023-02-28T17:42:15.716Z,35.95
2023-02-28T17:44:44.121Z,36.29
2023-02-28T17:47:13.606Z,36.37
2023-02-28T17:49:42.899Z,36.89
2023-02-28T17:52:11.951Z,36.86
2023-02-28T17:54:40.588Z,37.17
2023-02-28T17:57:16.009Z,37.75
2023-02-28T17:59:45.015Z,38.10
2023-02-28T18:02:14.853Z,37.94
2023-02-28T18:04:43.467Z,38.43
2023-02-28T18:07:13.155Z,39.09
2023-02-28T18:09:41.351Z,39.79
2023-02-28T18:12:10.453Z,40.38
2023-02-28T18:14:39.013Z,40.27
2023-02-28T18:17:13.576Z,41.36
2023-02-28T18:19:42.361Z,41.63
2023-02-28T18:22:11.142Z,41.27
2023-02-28T18:24:39.907Z,41.25
2023-02-28T18:27:08.878Z,40.86
2023-02-28T18:29:41.816Z,40.91
2023-02-28T18:32:10.782Z,41.07
2023-02-28T18:34:39.611Z,40.88
2023-02-28T18:37:08.159Z,41.01
2023-02-28T18:39:36.732Z,41.39
2023-02-28T18:42:05.322Z,41.14
2023-02-28T18:44:38.401Z,41.55
2023-02-28T18:47:10.141Z,41.36
2023-02-28T18:49:38.626Z,41.46
2023-02-28T18:52:07.344Z,41.29
2023-02-28T18:54:36.665Z,41.24
2023-02-28T18:57:05.429Z,41.24
2023-02-28T18:59:33.886Z,41.66
2023-02-28T19:02:02.831Z,41.77
2023-02-28T19:04:32.156Z,41.78
2023-02-28T19:07:01.745Z,42.47
2023-02-28T19:09:30.737Z,42.36
2023-02-28T19:12:00.003Z,42.66
2023-02-28T19:14:28.691Z,42.82
2023-02-28T19:16:57.018Z,42.99
2023-02-28T19:19:25.525Z,42.78
2023-02-28T19:21:55.497Z,42.67
2023-02-28T19:24:24.584Z,43.09
2023-02-28T19:26:53.122Z,43.17
2023-02-28T19:29:22.158Z,43.39
2023-02-28T19:31:51.011Z,43.19
2023-02-28T19:34:20.004Z,43.26
2023-02-28T19:36:48.578Z,43.41
2023-02-28T19:39:19.196Z,43.52
2023-02-28T19:41:50.721Z,43.90
2023-02-28T19:44:19.205Z,44.08
2023-02-28T19:46:48.603Z,44.45
2023-02-28T19:49:18.777Z,44.79
2023-02-28T19:51:47.406Z,44.95
2023-02-28T19:54:21.136Z,44.94
2023-02-28T19:56:49.707Z,45.10
2023-02-28T19:59:25.963Z,45.13
2023-02-28T20:01:59.858Z,45.10
2023-02-28T20:04:28.950Z,45.04
2023-02-28T20:06:57.512Z,45.60
2023-02-28T20:09:26.591Z,45.83
2023-02-28T20:11:59.578Z,45.94
2023-02-28T20:14:28.089Z,46.33
2023-02-28T20:16:58.218Z,46.34
2023-02-28T20:19:27.215Z,46.36
2023-02-28T20:21:55.993Z,46.31
2023-02-28T20:24:26.279Z,46.59
2023-02-28T20:26:56.029Z,46.15
2023-02-28T20:29:25.186Z,46.14
2023-02-28T20:31:58.901Z,46.56
2023-02-28T20:34:27.444Z,46.81
2023-02-28T20:36:58.998Z,46.45
2023-02-28T20:39:27.421Z,46.90
2023-02-28T20:41:57.138Z,46.56
2023-02-28T20:44:26.102Z,46.63
2023-02-28T20:46:55.378Z,46.64
2023-02-28T20:49:24.301Z,46.96
2023-02-28T20:51:52.634Z,47.05
2023-02-28T20:54:22.046Z,47.21
2023-02-28T20:56:50.745Z,47.50
2023-02-28T20:59:21.480Z,47.41
2023-02-28T21:01:50.156Z,47.52
2023-02-28T21:04:19.086Z,47.72
2023-02-28T21:06:52.135Z,47.79
2023-02-28T21:09:20.593Z,47.73
2023-02-28T21:11:49.633Z,47.73
2023-02-28T21:14:18.531Z,47.53
2023-02-28T21:16:47.281Z,47.60
2023-02-28T21:19:21.879Z,47.51
2023-02-28T21:21:54.746Z,47.69
2023-02-28T21:24:23.085Z,47.80
2023-02-28T21:26:53.076Z,47.91
2023-02-28T21:29:21.426Z,48.11
2023-02-28T21:31:55.053Z,48.18
2023-02-28T21:34:23.846Z,48.21
2023-02-28T21:36:52.414Z,48.25
2023-02-28T21:39:30.301Z,48.54
2023-02-28T21:42:04.310Z,48.77
2023-02-28T21:44:34.930Z,48.80
2023-02-28T21:47:03.433Z,49.10
2023-02-28T21:49:33.007Z,49.16
2023-02-28T21:52:02.057Z,49.24
2023-02-28T21:54:30.453Z,49.56
2023-02-28T21:57:00.401Z,49.52
2023-02-28T21:59:32.344Z,49.77
2023-02-28T22:02:01.078Z,49.58
2023-02-28T22:04:29.455Z,49.82
2023-02-28T22:06:58.306Z,49.87
2023-02-28T22:09:28.024Z,50.09
2023-02-28T22:11:58.156Z,50.11
2023-02-28T22:14:27.079Z,50.08
2023-02-28T22:16:57.336Z,50.03
2023-02-28T22:19:28.381Z,50.45
2023-02-28T22:22:01.162Z,51.28
2023-02-28T22:24:29.962Z,51.34
2023-02-28T22:26:58.881Z,51.29
2023-02-28T22:29:27.223Z,51.32
2023-02-28T22:31:55.972Z,51.26
2023-02-28T22:34:24.118Z,51.34
2023-02-28T22:36:52.613Z,51.05
2023-02-28T22:39:21.524Z,51.03
2023-02-28T22:41:50.215Z,51.16
2023-02-28T22:44:23.231Z,50.99
2023-02-28T22:47:01.029Z,51.31
2023-02-28T22:49:29.902Z,51.30
2023-02-28T22:51:58.189Z,51.10
2023-02-28T22:54:29.532Z,51.06
2023-02-28T22:56:58.174Z,50.98
2023-02-28T22:59:27.646Z,51.00
2023-02-28T23:01:56.442Z,50.93
2023-02-28T23:04:26.995Z,50.69
2023-02-28T23:06:55.704Z,50.33
2023-02-28T23:09:25.680Z,50.46
2023-02-28T23:11:54.670Z,50.53
2023-02-28T23:14:23.268Z,50.81
2023-02-28T23:16:55.157Z,50.89
2023-02-28T23:19:30.474Z,51.04
2023-02-28T23:22:00.548Z,51.09
2023-02-28T23:24:33.056Z,51.16
2023-02-28T23:27:05.096Z,51.32
2023-02-28T23:29:34.479Z,51.46
2023-02-28T23:32:03.470Z,51.69
2023-02-28T23:34:34.530Z,51.90
2023-02-28T23:37:03.015Z,51.81
2023-02-28T23:39:32.043Z,51.97
2023-02-28T23:42:00.513Z,51.86
2023-02-28T23:44:29.519Z,52.12
2023-02-28T23:46:57.890Z,52.18
2023-02-28T23:49:29.243Z,51.79
2023-02-28T23:51:57.965Z,51.62
2023-02-28T23:54:30.562Z,51.43
2023-02-28T23:56:59.044Z,51.32
2023-02-28T23:59:27.799Z,51.49
